Time,TemperatureF,DewpointF,PressureIn,WindDirection,WindDirectionDegrees,WindSpeedMPH,WindSpeedGustMPH,Humidity,HourlyPrecipIn,Conditions,Clouds,dailyrainin,SoftwareType,DateUTC
2013-05-01 00:00:00,64.9,62.0,30.11,East,94,1.0,8.0,90,0.00,,,0.00,weatherlink.com 1.10,2013-05-01 04:00:00,
2013-05-01 00:15:00,64.7,62.0,30.11,NE,42,3.0,6.0,89,0.00,,,0.00,weatherlink.com 1.10,2013-05-01 04:15:00,
2013-05-01 00:30:00,64.8,61.0,30.11,NE,54,5.0,10.0,86,0.00,,,0.00,weatherlink.com 1.10,2013-05-01 04:30:00,
2013-05-01 00:45:00,64.8,60.0,30.11,NE,52,4.0,10.0,85,0.00,,,0.00,weatherlink.com 1.10,2013-05-01 04:45:00,
2013-05-01 01:00:00,64.6,60.0,30.12,NE,37,6.0,8.0,86,0.00,,,0.00,weatherlink.com 1.10,2013-05-01 05:00:00,
2013-05-01 01:15:00,64.3,60.0,30.11,ENE,69,3.0,8.0,87,0.00,,,0.00,weatherlink.com 1.10,2013-05-01 05:15:00,
2013-05-01 01:30:00,63.9,60.0,30.11,East,84,5.0,10.0,87,0.00,,,0.00,weatherlink.com 1.10,2013-05-01 05:30:00,
2013-05-01 01:45:00,63.4,60.0,30.10,NNE,33,2.0,8.0,88,0.00,,,0.00,weatherlink.com 1.10,2013-05-01 05:45:00,
2013-05-01 02:00:00,62.7,60.0,30.10,North,353,3.0,5.0,90,0.00,,,0.00,weatherlink.com 1.10,2013-05-01 06:00:00,
2013-05-01 02:15:00,62.0,59.0,30.09,North,353,3.0,6.0,91,0.00,,,0.00,weatherlink.com 1.10,2013-05-01 06:15:00,
2013-05-01 02:30:00,61.5,59.0,30.09,NNE,22,4.0,5.0,92,0.00,,,0.00,weatherlink.com 1.10,2013-05-01 06:30:00,
2013-05-01 02:45:00,61.0,59.0,30.08,North,9,2.0,5.0,93,0.00,,,0.00,weatherlink.com 1.10,2013-05-01 06:45:00,
2013-05-01 03:00:00,60.8,59.0,30.08,NE,47,1.0,4.0,93,0.00,,,0.00,weatherlink.com 1.10,2013-05-01 07:00:00,
2013-05-01 03:15:00,60.5,59.0,30.09,NNE,30,1.0,6.0,93,0.00,,,0.00,weatherlink.com 1.10,2013-05-01 07:15:00,
2013-05-01 03:30:00,60.2,58.0,30.09,North,353,0.0,4.0,93,0.00,,,0.00,weatherlink.com 1.10,2013-05-01 07:30:00,
2013-05-01 03:45:00,59.9,58.0,30.10,North,9,2.0,4.0,94,0.00,,,0.00,weatherlink.com 1.10,2013-05-01 07:45:00,
2013-05-01 04:00:00,59.7,58.0,30.10,ENE,67,2.0,3.0,94,0.00,,,0.00,weatherlink.com 1.10,2013-05-01 08:00:00,
2013-05-01 04:15:00,59.5,58.0,30.10,ENE,58,1.0,4.0,94,0.00,,,0.00,weatherlink.com 1.10,2013-05-01 08:15:00,
2013-05-01 04:30:00,59.1,57.0,30.10,ENE,64,2.0,3.0,94,0.00,,,0.00,weatherlink.com 1.10,2013-05-01 08:30:00,
2013-05-01 04:45:00,58.8,57.0,30.10,ENE,72,0.0,4.0,95,0.00,,,0.00,weatherlink.com 1.10,2013-05-01 08:45:00,
2013-05-01 05:00:00,58.5,57.0,30.10,North,10,1.0,2.0,95,0.00,,,0.00,weatherlink.com 1.10,2013-05-01 09:00:00,
2013-05-01 05:16:00,58.5,57.0,30.10,NNE,27,7.0,7.0,96,0.00,,,0.00,weatherlink.com 1.10,2013-05-01 09:16:00,
2013-05-01 05:31:00,58.8,58.0,30.11,NW,320,5.0,11.0,96,0.00,,,0.00,weatherlink.com 1.10,2013-05-01 09:31:00,
2013-05-01 05:46:00,59.0,58.0,30.11,East,82,4.0,8.0,95,0.00,,,0.00,weatherlink.com 1.10,2013-05-01 09:46:00,
2013-05-01 06:01:00,59.1,57.0,30.12,NE,52,6.0,10.0,94,0.00,,,0.00,weatherlink.com 1.10,2013-05-01 10:01:00,
2013-05-01 06:16:00,59.0,57.0,30.12,East,80,3.0,13.0,93,0.00,,,0.00,weatherlink.com 1.10,2013-05-01 10:16:00,
2013-05-01 06:31:00,59.0,57.0,30.12,ENE,76,3.0,10.0,93,0.00,,,0.00,weatherlink.com 1.10,2013-05-01 10:31:00,
2013-05-01 06:46:00,59.0,57.0,30.13,NE,37,5.0,14.0,93,0.00,,,0.00,weatherlink.com 1.10,2013-05-01 10:46:00,
2013-05-01 07:01:00,59.1,57.0,30.13,NE,54,3.0,9.0,92,0.00,,,0.00,weatherlink.com 1.10,2013-05-01 11:01:00,
2013-05-01 07:16:00,59.3,57.0,30.14,NNE,20,3.0,11.0,92,0.00,,,0.00,weatherlink.com 1.10,2013-05-01 11:16:00,
2013-05-01 07:31:00,59.4,57.0,30.14,East,79,4.0,9.0,92,0.00,,,0.00,weatherlink.com 1.10,2013-05-01 11:31:00,
2013-05-01 07:46:00,59.7,57.0,30.14,NNE,16,3.0,6.0,91,0.00,,,0.00,weatherlink.com 1.10,2013-05-01 11:46:00,
2013-05-01 08:01:00,60.1,58.0,30.14,North,8,1.0,6.0,91,0.00,,,0.00,weatherlink.com 1.10,2013-05-01 12:01:00,
2013-05-01 08:16:00,60.4,58.0,30.14,East,85,0.0,10.0,90,0.00,,,0.00,weatherlink.com 1.10,2013-05-01 12:16:00,
2013-05-01 08:31:00,60.6,57.0,30.15,WNW,299,5.0,12.0,89,0.00,,,0.00,weatherlink.com 1.10,2013-05-01 12:31:00,
2013-05-01 08:46:00,61.0,58.0,30.15,NNE,31,1.0,7.0,88,0.00,,,0.00,weatherlink.com 1.10,2013-05-01 12:46:00,
2013-05-01 09:01:00,61.3,57.0,30.15,NE,38,6.0,11.0,87,0.00,,,0.00,weatherlink.com 1.10,2013-05-01 13:01:00,
2013-05-01 09:16:00,61.6,58.0,30.16,ENE,69,3.0,10.0,87,0.00,,,0.00,weatherlink.com 1.10,2013-05-01 13:16:00,
2013-05-01 09:31:00,62.6,58.0,30.16,ENE,72,0.0,9.0,84,0.00,,,0.00,weatherlink.com 1.10,2013-05-01 13:31:00,
2013-05-01 09:46:00,63.4,59.0,30.16,ENE,63,6.0,8.0,84,0.00,,,0.00,weatherlink.com 1.10,2013-05-01 13:46:00,
2013-05-01 10:01:00,63.7,59.0,30.17,East,83,5.0,11.0,83,0.00,,,0.00,weatherlink.com 1.10,2013-05-01 14:01:00,
2013-05-01 10:16:00,64.0,58.0,30.17,ENE,75,6.0,9.0,82,0.00,,,0.00,weatherlink.com 1.10,2013-05-01 14:16:00,
2013-05-01 10:31:00,64.5,59.0,30.18,ENE,66,1.0,7.0,82,0.00,,,0.00,weatherlink.com 1.10,2013-05-01 14:31:00,
2013-05-01 10:46:00,65.0,59.0,30.17,ENE,74,5.0,9.0,81,0.00,,,0.00,weatherlink.com 1.10,2013-05-01 14:46:00,
2013-05-01 11:01:00,65.2,59.0,30.18,NNE,17,9.0,14.0,80,0.00,,,0.00,weatherlink.com 1.10,2013-05-01 15:01:00,
2013-05-01 11:16:00,65.6,60.0,30.18,ENE,75,6.0,12.0,81,0.00,,,0.00,weatherlink.com 1.10,2013-05-01 15:16:00,
2013-05-01 11:31:00,66.1,60.0,30.18,NNE,21,6.0,9.0,80,0.00,,,0.00,weatherlink.com 1.10,2013-05-01 15:31:00,
2013-05-01 11:46:00,66.7,60.0,30.18,ENE,73,5.0,10.0,79,0.00,,,0.00,weatherlink.com 1.10,2013-05-01 15:46:00,
2013-05-01 12:01:00,67.4,60.0,30.17,NNE,14,4.0,10.0,78,0.00,,,0.00,weatherlink.com 1.10,2013-05-01 16:01:00,
2013-05-01 12:16:00,68.3,60.0,30.16,East,89,8.0,11.0,76,0.00,,,0.00,weatherlink.com 1.10,2013-05-01 16:16:00,
2013-05-01 12:31:00,68.2,61.0,30.16,ESE,115,3.0,12.0,77,0.00,,,0.00,weatherlink.com 1.10,2013-05-01 16:31:00,
2013-05-01 12:46:00,68.8,60.0,30.15,NE,38,8.0,12.0,74,0.00,,,0.00,weatherlink.com 1.10,2013-05-01 16:46:00,
2013-05-01 13:01:00,68.4,61.0,30.15,East,83,11.0,14.0,76,0.00,,,0.00,weatherlink.com 1.10,2013-05-01 17:01:00,
2013-05-01 13:16:00,70.1,62.0,30.15,East,101,2.0,11.0,75,0.00,,,0.00,weatherlink.com 1.10,2013-05-01 17:16:00,
2013-05-01 13:31:00,70.9,61.0,30.15,NNW,348,2.0,9.0,72,0.00,,,0.00,weatherlink.com 1.10,2013-05-01 17:31:00,
2013-05-01 13:46:00,71.3,61.0,30.15,ENE,78,2.0,9.0,71,0.00,,,0.00,weatherlink.com 1.10,2013-05-01 17:46:00,
2013-05-01 14:02:00,72.3,61.0,30.15,NNW,339,5.0,11.0,68,0.00,,,0.00,weatherlink.com 1.10,2013-05-01 18:02:00,
2013-05-01 14:17:00,72.7,62.0,30.16,East,90,3.0,12.0,68,0.00,,,0.00,weatherlink.com 1.10,2013-05-01 18:17:00,
2013-05-01 14:32:00,73.1,61.0,30.16,NE,51,8.0,10.0,66,0.00,,,0.00,weatherlink.com 1.10,2013-05-01 18:32:00,
2013-05-01 14:47:00,73.2,62.0,30.15,NE,40,8.0,9.0,67,0.00,,,0.00,weatherlink.com 1.10,2013-05-01 18:47:00,
2013-05-01 15:02:00,73.9,61.0,30.15,NNE,28,7.0,9.0,65,0.00,,,0.00,weatherlink.com 1.10,2013-05-01 19:02:00,
2013-05-01 15:17:00,74.0,62.0,30.14,East,86,5.0,9.0,66,0.00,,,0.00,weatherlink.com 1.10,2013-05-01 19:17:00,
2013-05-01 15:32:00,73.7,62.0,30.14,SE,132,1.0,7.0,68,0.00,,,0.00,weatherlink.com 1.10,2013-05-01 19:32:00,
2013-05-01 15:47:00,73.4,63.0,30.14,East,94,1.0,6.0,71,0.00,,,0.00,weatherlink.com 1.10,2013-05-01 19:47:00,
2013-05-01 16:02:00,72.4,63.0,30.14,East,101,5.0,8.0,72,0.00,,,0.00,weatherlink.com 1.10,2013-05-01 20:02:00,
2013-05-01 16:17:00,69.3,63.0,30.15,ESE,107,2.0,7.0,79,0.00,,,0.00,weatherlink.com 1.10,2013-05-01 20:17:00,
2013-05-01 16:32:00,68.9,62.0,30.15,ENE,76,4.0,9.0,78,0.00,,,0.00,weatherlink.com 1.10,2013-05-01 20:32:00,
2013-05-01 16:47:00,69.1,62.0,30.15,East,99,6.0,6.0,78,0.00,,,0.00,weatherlink.com 1.10,2013-05-01 20:47:00,
2013-05-01 17:02:00,68.7,62.0,30.15,East,94,3.0,4.0,80,0.00,,,0.00,weatherlink.com 1.10,2013-05-01 21:02:00,
2013-05-01 17:17:00,67.5,62.0,30.15,ENE,68,2.0,8.0,82,0.00,,,0.00,weatherlink.com 1.10,2013-05-01 21:17:00,
2013-05-01 17:32:00,67.6,63.0,30.15,ESE,120,2.0,7.0,84,0.00,,,0.00,weatherlink.com 1.10,2013-05-01 21:32:00,
2013-05-01 17:47:00,67.7,63.0,30.15,East,95,0.0,6.0,84,0.00,,,0.00,weatherlink.com 1.10,2013-05-01 21:47:00,
2013-05-01 18:02:00,67.5,63.0,30.16,NE,40,0.0,5.0,84,0.00,,,0.00,weatherlink.com 1.10,2013-05-01 22:02:00,
2013-05-01 18:17:00,66.8,63.0,30.16,East,99,0.0,6.0,87,0.00,,,0.00,weatherlink.com 1.10,2013-05-01 22:17:00,
2013-05-01 18:32:00,66.2,63.0,30.16,East,90,3.0,4.0,90,0.00,,,0.00,weatherlink.com 1.10,2013-05-01 22:32:00,
2013-05-01 18:47:00,66.2,64.0,30.15,ENE,70,0.0,3.0,91,0.00,,,0.00,weatherlink.com 1.10,2013-05-01 22:47:00,
2013-05-01 19:02:00,66.2,63.0,30.16,NNE,30,5.0,7.0,90,0.00,,,0.00,weatherlink.com 1.10,2013-05-01 23:02:00,
2013-05-01 19:17:00,66.0,63.0,30.16,East,86,8.0,8.0,91,0.00,,,0.00,weatherlink.com 1.10,2013-05-01 23:17:00,
2013-05-01 19:32:00,65.6,63.0,30.15,East,100,5.0,11.0,92,0.00,,,0.00,weatherlink.com 1.10,2013-05-01 23:32:00,
2013-05-01 19:47:00,65.1,63.0,30.15,ENE,69,4.0,10.0,93,0.00,,,0.00,weatherlink.com 1.10,2013-05-01 23:47:00,
2013-05-01 20:02:00,64.9,63.0,30.16,NE,45,4.0,8.0,94,0.00,,,0.00,weatherlink.com 1.10,2013-05-02 00:02:00,
2013-05-01 20:17:00,64.8,63.0,30.17,NE,52,1.0,6.0,94,0.00,,,0.00,weatherlink.com 1.10,2013-05-02 00:17:00,
2013-05-01 20:32:00,64.8,63.0,30.18,NE,51,4.0,6.0,95,0.00,,,0.00,weatherlink.com 1.10,2013-05-02 00:32:00,
2013-05-01 20:47:00,64.9,64.0,30.18,NE,52,5.0,7.0,95,0.00,,,0.00,weatherlink.com 1.10,2013-05-02 00:47:00,
2013-05-01 21:02:00,65.0,63.0,30.18,NE,45,4.0,7.0,94,0.00,,,0.00,weatherlink.com 1.10,2013-05-02 01:02:00,
2013-05-01 21:17:00,65.1,63.0,30.18,NE,52,3.0,9.0,94,0.00,,,0.00,weatherlink.com 1.10,2013-05-02 01:17:00,
2013-05-01 21:32:00,65.2,63.0,30.19,NE,45,6.0,10.0,93,0.00,,,0.00,weatherlink.com 1.10,2013-05-02 01:32:00,
2013-05-01 21:47:00,65.1,63.0,30.19,North,9,4.0,8.0,93,0.00,,,0.00,weatherlink.com 1.10,2013-05-02 01:47:00,
2013-05-01 22:02:00,65.0,63.0,30.19,NE,37,3.0,8.0,93,0.00,,,0.00,weatherlink.com 1.10,2013-05-02 02:02:00,
2013-05-01 22:17:00,64.9,63.0,30.20,East,94,8.0,8.0,93,0.00,,,0.00,weatherlink.com 1.10,2013-05-02 02:17:00,
2013-05-01 22:32:00,64.9,63.0,30.20,ENE,59,6.0,10.0,93,0.00,,,0.00,weatherlink.com 1.10,2013-05-02 02:32:00,
2013-05-01 22:47:00,64.9,63.0,30.20,NNE,14,5.0,9.0,94,0.00,,,0.00,weatherlink.com 1.10,2013-05-02 02:47:00,
2013-05-01 23:02:00,64.7,63.0,30.19,ENE,73,2.0,9.0,94,0.00,,,0.00,weatherlink.com 1.10,2013-05-02 03:02:00,
2013-05-01 23:17:00,64.3,63.0,30.19,NE,49,4.0,7.0,95,0.00,,,0.00,weatherlink.com 1.10,2013-05-02 03:17:00,
2013-05-01 23:32:00,64.3,63.0,30.20,NNE,14,1.0,7.0,96,0.00,,,0.00,weatherlink.com 1.10,2013-05-02 03:32:00,
2013-05-01 23:47:00,64.3,63.0,30.20,NE,56,5.0,8.0,96,0.00,,,0.00,weatherlink.com 1.10,2013-05-02 03:47:00,